sensor_id;sensor_type;location;lat;lon;timestamp;P1;durP1;ratioP1;P2;durP2;ratioP2
78908;SDS011;68298;37.368;127.108;2023-04-21T00:01:15;445.13;;;32.47;;
78908;SDS011;68298;37.368;127.108;2023-04-21T00:03:47;441.77;;;35.03;;
78908;SDS011;68298;37.368;127.108;2023-04-21T00:06:18;459.08;;;40.95;;
78908;SDS011;68298;37.368;127.108;2023-04-21T00:08:50;557.20;;;52.08;;
78908;SDS011;68298;37.368;127.108;2023-04-21T00:11:21;630.92;;;55.10;;
78908;SDS011;68298;37.368;127.108;2023-04-21T00:13:52;490.20;;;43.92;;
78908;SDS011;68298;37.368;127.108;2023-04-21T00:16:23;392.92;;;36.60;;
78908;SDS011;68298;37.368;127.108;2023-04-21T00:18:55;241.88;;;26.70;;
78908;SDS011;68298;37.368;127.108;2023-04-21T00:21:25;195.30;;;23.65;;
78908;SDS011;68298;37.368;127.108;2023-04-21T00:23:56;135.73;;;17.17;;
78908;SDS011;68298;37.368;127.108;2023-04-21T00:26:26;258.83;;;26.50;;
78908;SDS011;68298;37.368;127.108;2023-04-21T00:28:57;125.22;;;17.30;;
78908;SDS011;68298;37.368;127.108;2023-04-21T00:31:29;108.00;;;16.40;;
78908;SDS011;68298;37.368;127.108;2023-04-21T00:34:01;77.35;;;14.00;;
78908;SDS011;68298;37.368;127.108;2023-04-21T00:36:31;55.65;;;12.10;;
78908;SDS011;68298;37.368;127.108;2023-04-21T00:39:03;42.30;;;11.55;;
78908;SDS011;68298;37.368;127.108;2023-04-21T00:41:34;37.55;;;10.05;;
78908;SDS011;68298;37.368;127.108;2023-04-21T00:44:07;36.67;;;10.63;;
78908;SDS011;68298;37.368;127.108;2023-04-21T00:46:38;30.83;;;9.15;;
78908;SDS011;68298;37.368;127.108;2023-04-21T00:49:11;43.08;;;10.30;;
78908;SDS011;68298;37.368;127.108;2023-04-21T00:51:42;56.78;;;10.32;;
78908;SDS011;68298;37.368;127.108;2023-04-21T00:54:14;34.28;;;9.40;;
78908;SDS011;68298;37.368;127.108;2023-04-21T00:56:47;17.60;;;8.82;;
78908;SDS011;68298;37.368;127.108;2023-04-21T00:59:17;26.27;;;8.13;;
78908;SDS011;68298;37.368;127.108;2023-04-21T01:01:49;20.42;;;8.45;;
78908;SDS011;68298;37.368;127.108;2023-04-21T01:04:20;25.42;;;8.75;;
78908;SDS011;68298;37.368;127.108;2023-04-21T01:06:51;16.73;;;8.18;;
78908;SDS011;68298;37.368;127.108;2023-04-21T01:09:22;18.90;;;8.68;;
78908;SDS011;68298;37.368;127.108;2023-04-21T01:12:06;15.98;;;7.45;;
78908;SDS011;68298;37.368;127.108;2023-04-21T01:14:38;13.20;;;7.93;;
78908;SDS011;68298;37.368;127.108;2023-04-21T01:17:10;24.47;;;9.00;;
78908;SDS011;68298;37.368;127.108;2023-04-21T01:19:40;12.98;;;7.32;;
78908;SDS011;68298;37.368;127.108;2023-04-21T01:22:12;15.73;;;7.78;;
78908;SDS011;68298;37.368;127.108;2023-04-21T01:24:44;12.80;;;7.55;;
78908;SDS011;68298;37.368;127.108;2023-04-21T01:27:19;17.00;;;7.97;;
78908;SDS011;68298;37.368;127.108;2023-04-21T01:29:51;14.85;;;7.25;;
78908;SDS011;68298;37.368;127.108;2023-04-21T01:32:24;12.85;;;6.25;;
78908;SDS011;68298;37.368;127.108;2023-04-21T01:34:57;22.77;;;6.80;;
78908;SDS011;68298;37.368;127.108;2023-04-21T01:37:30;13.73;;;6.97;;
78908;SDS011;68298;37.368;127.108;2023-04-21T01:40:03;14.60;;;7.15;;
78908;SDS011;68298;37.368;127.108;2023-04-21T01:42:38;16.25;;;7.05;;
78908;SDS011;68298;37.368;127.108;2023-04-21T01:45:12;10.00;;;6.38;;
78908;SDS011;68298;37.368;127.108;2023-04-21T01:47:43;13.85;;;6.97;;
78908;SDS011;68298;37.368;127.108;2023-04-21T01:50:14;22.10;;;6.85;;
78908;SDS011;68298;37.368;127.108;2023-04-21T01:52:45;14.02;;;6.82;;
78908;SDS011;68298;37.368;127.108;2023-04-21T01:55:16;13.88;;;6.72;;
78908;SDS011;68298;37.368;127.108;2023-04-21T01:57:46;12.88;;;5.97;;
78908;SDS011;68298;37.368;127.108;2023-04-21T02:00:17;12.88;;;6.80;;
78908;SDS011;68298;37.368;127.108;2023-04-21T02:02:48;12.20;;;5.88;;
78908;SDS011;68298;37.368;127.108;2023-04-21T02:05:18;15.35;;;6.60;;
78908;SDS011;68298;37.368;127.108;2023-04-21T02:07:49;11.35;;;6.35;;
78908;SDS011;68298;37.368;127.108;2023-04-21T02:10:21;9.05;;;5.60;;
78908;SDS011;68298;37.368;127.108;2023-04-21T02:12:52;12.23;;;6.05;;
78908;SDS011;68298;37.368;127.108;2023-04-21T02:15:22;11.00;;;6.20;;
78908;SDS011;68298;37.368;127.108;2023-04-21T02:17:53;17.77;;;6.10;;
78908;SDS011;68298;37.368;127.108;2023-04-21T02:20:24;46.08;;;8.02;;
78908;SDS011;68298;37.368;127.108;2023-04-21T02:22:55;34.45;;;6.38;;
78908;SDS011;68298;37.368;127.108;2023-04-21T02:25:27;19.95;;;6.60;;
78908;SDS011;68298;37.368;127.108;2023-04-21T02:27:58;16.67;;;5.95;;
78908;SDS011;68298;37.368;127.108;2023-04-21T02:30:29;13.23;;;6.28;;
78908;SDS011;68298;37.368;127.108;2023-04-21T02:32:59;14.05;;;6.70;;
78908;SDS011;68298;37.368;127.108;2023-04-21T02:35:30;10.85;;;5.95;;
78908;SDS011;68298;37.368;127.108;2023-04-21T02:38:02;11.25;;;6.10;;
78908;SDS011;68298;37.368;127.108;2023-04-21T02:40:35;12.93;;;6.40;;
78908;SDS011;68298;37.368;127.108;2023-04-21T02:43:06;11.95;;;6.18;;
78908;SDS011;68298;37.368;127.108;2023-04-21T02:45:37;10.38;;;5.75;;
78908;SDS011;68298;37.368;127.108;2023-04-21T02:48:07;9.85;;;6.00;;
78908;SDS011;68298;37.368;127.108;2023-04-21T02:50:38;12.65;;;5.88;;
78908;SDS011;68298;37.368;127.108;2023-04-21T02:53:09;10.68;;;6.13;;
78908;SDS011;68298;37.368;127.108;2023-04-21T02:55:39;10.63;;;6.15;;
78908;SDS011;68298;37.368;127.108;2023-04-21T02:58:10;12.00;;;6.30;;
78908;SDS011;68298;37.368;127.108;2023-04-21T03:00:40;9.23;;;6.03;;
78908;SDS011;68298;37.368;127.108;2023-04-21T03:03:13;7.70;;;5.40;;
78908;SDS011;68298;37.368;127.108;2023-04-21T03:05:44;14.23;;;6.30;;
78908;SDS011;68298;37.368;127.108;2023-04-21T03:08:16;9.40;;;6.18;;
78908;SDS011;68298;37.368;127.108;2023-04-21T03:10:47;10.15;;;6.10;;
78908;SDS011;68298;37.368;127.108;2023-04-21T03:13:21;9.20;;;5.60;;
78908;SDS011;68298;37.368;127.108;2023-04-21T03:15:52;9.90;;;5.60;;
78908;SDS011;68298;37.368;127.108;2023-04-21T03:18:22;10.50;;;5.30;;
78908;SDS011;68298;37.368;127.108;2023-04-21T03:20:58;9.07;;;4.63;;
78908;SDS011;68298;37.368;127.108;2023-04-21T03:23:29;9.35;;;5.00;;
78908;SDS011;68298;37.368;127.108;2023-04-21T03:26:00;8.27;;;5.10;;
78908;SDS011;68298;37.368;127.108;2023-04-21T03:28:34;10.57;;;5.43;;
78908;SDS011;68298;37.368;127.108;2023-04-21T03:31:05;8.00;;;5.30;;
78908;SDS011;68298;37.368;127.108;2023-04-21T03:33:35;7.53;;;5.40;;
78908;SDS011;68298;37.368;127.108;2023-04-21T03:36:06;9.30;;;5.80;;
78908;SDS011;68298;37.368;127.108;2023-04-21T03:38:37;14.15;;;5.30;;
78908;SDS011;68298;37.368;127.108;2023-04-21T03:41:08;8.50;;;5.35;;
78908;SDS011;68298;37.368;127.108;2023-04-21T03:43:38;13.90;;;6.50;;
78908;SDS011;68298;37.368;127.108;2023-04-21T03:46:17;9.05;;;5.45;;
78908;SDS011;68298;37.368;127.108;2023-04-21T03:48:51;9.40;;;5.70;;
78908;SDS011;68298;37.368;127.108;2023-04-21T03:51:22;10.20;;;5.57;;
78908;SDS011;68298;37.368;127.108;2023-04-21T03:53:52;9.93;;;5.70;;
78908;SDS011;68298;37.368;127.108;2023-04-21T03:56:23;8.85;;;5.38;;
78908;SDS011;68298;37.368;127.108;2023-04-21T03:58:54;9.98;;;6.07;;
78908;SDS011;68298;37.368;127.108;2023-04-21T04:01:25;11.50;;;5.82;;
78908;SDS011;68298;37.368;127.108;2023-04-21T04:03:56;8.43;;;5.03;;
78908;SDS011;68298;37.368;127.108;2023-04-21T04:06:27;12.85;;;5.35;;
78908;SDS011;68298;37.368;127.108;2023-04-21T04:08:57;14.18;;;5.45;;
78908;SDS011;68298;37.368;127.108;2023-04-21T04:11:30;17.42;;;5.85;;
78908;SDS011;68298;37.368;127.108;2023-04-21T04:14:01;10.02;;;5.22;;
78908;SDS011;68298;37.368;127.108;2023-04-21T04:16:32;13.30;;;5.53;;
78908;SDS011;68298;37.368;127.108;2023-04-21T04:19:03;15.50;;;5.25;;
78908;SDS011;68298;37.368;127.108;2023-04-21T04:21:34;10.23;;;5.43;;
78908;SDS011;68298;37.368;127.108;2023-04-21T04:24:05;13.23;;;5.40;;
78908;SDS011;68298;37.368;127.108;2023-04-21T04:26:36;12.85;;;5.38;;
78908;SDS011;68298;37.368;127.108;2023-04-21T04:29:08;9.10;;;5.32;;
78908;SDS011;68298;37.368;127.108;2023-04-21T04:31:38;9.85;;;5.50;;
78908;SDS011;68298;37.368;127.108;2023-04-21T04:34:09;10.40;;;5.10;;
78908;SDS011;68298;37.368;127.108;2023-04-21T04:36:39;11.50;;;5.63;;
78908;SDS011;68298;37.368;127.108;2023-04-21T04:39:14;10.18;;;5.45;;
78908;SDS011;68298;37.368;127.108;2023-04-21T04:41:45;9.75;;;5.40;;
78908;SDS011;68298;37.368;127.108;2023-04-21T04:44:16;13.93;;;5.45;;
78908;SDS011;68298;37.368;127.108;2023-04-21T04:46:48;16.70;;;6.10;;
78908;SDS011;68298;37.368;127.108;2023-04-21T04:49:18;16.10;;;5.72;;
78908;SDS011;68298;37.368;127.108;2023-04-21T04:51:51;22.33;;;6.13;;
78908;SDS011;68298;37.368;127.108;2023-04-21T04:54:21;43.55;;;6.88;;
78908;SDS011;68298;37.368;127.108;2023-04-21T04:56:53;32.88;;;6.28;;
78908;SDS011;68298;37.368;127.108;2023-04-21T04:59:25;28.30;;;6.00;;
78908;SDS011;68298;37.368;127.108;2023-04-21T05:01:56;33.10;;;6.05;;
78908;SDS011;68298;37.368;127.108;2023-04-21T05:04:27;36.33;;;7.20;;
78908;SDS011;68298;37.368;127.108;2023-04-21T05:06:58;21.67;;;6.57;;
78908;SDS011;68298;37.368;127.108;2023-04-21T05:09:28;35.55;;;7.43;;
78908;SDS011;68298;37.368;127.108;2023-04-21T05:11:59;28.42;;;7.05;;
78908;SDS011;68298;37.368;127.108;2023-04-21T05:14:30;16.33;;;6.28;;
78908;SDS011;68298;37.368;127.108;2023-04-21T05:17:01;16.05;;;6.60;;
78908;SDS011;68298;37.368;127.108;2023-04-21T05:19:34;16.23;;;6.03;;
78908;SDS011;68298;37.368;127.108;2023-04-21T05:22:08;23.80;;;6.82;;
78908;SDS011;68298;37.368;127.108;2023-04-21T05:24:40;19.70;;;7.45;;
78908;SDS011;68298;37.368;127.108;2023-04-21T05:27:12;26.67;;;6.75;;
78908;SDS011;68298;37.368;127.108;2023-04-21T05:29:43;16.90;;;6.57;;
78908;SDS011;68298;37.368;127.108;2023-04-21T05:32:14;23.25;;;6.68;;
78908;SDS011;68298;37.368;127.108;2023-04-21T05:34:45;23.80;;;7.22;;
78908;SDS011;68298;37.368;127.108;2023-04-21T05:37:16;27.25;;;7.28;;
78908;SDS011;68298;37.368;127.108;2023-04-21T05:39:47;19.15;;;7.13;;
78908;SDS011;68298;37.368;127.108;2023-04-21T05:42:18;22.33;;;7.18;;
78908;SDS011;68298;37.368;127.108;2023-04-21T05:44:50;33.08;;;7.60;;
78908;SDS011;68298;37.368;127.108;2023-04-21T05:47:21;28.65;;;7.20;;
78908;SDS011;68298;37.368;127.108;2023-04-21T05:49:52;22.35;;;7.63;;
78908;SDS011;68298;37.368;127.108;2023-04-21T05:52:23;24.95;;;7.07;;
78908;SDS011;68298;37.368;127.108;2023-04-21T05:54:54;28.70;;;7.30;;
78908;SDS011;68298;37.368;127.108;2023-04-21T05:57:24;39.15;;;6.97;;
78908;SDS011;68298;37.368;127.108;2023-04-21T05:59:55;23.55;;;6.95;;
78908;SDS011;68298;37.368;127.108;2023-04-21T06:02:27;21.92;;;7.35;;
78908;SDS011;68298;37.368;127.108;2023-04-21T06:04:58;19.90;;;6.57;;
78908;SDS011;68298;37.368;127.108;2023-04-21T06:07:29;23.08;;;7.03;;
78908;SDS011;68298;37.368;127.108;2023-04-21T06:10:00;20.27;;;6.57;;
78908;SDS011;68298;37.368;127.108;2023-04-21T06:12:30;16.20;;;6.68;;
78908;SDS011;68298;37.368;127.108;2023-04-21T06:15:01;15.93;;;6.72;;
78908;SDS011;68298;37.368;127.108;2023-04-21T06:17:31;15.50;;;7.15;;
78908;SDS011;68298;37.368;127.108;2023-04-21T06:20:02;10.80;;;6.18;;
78908;SDS011;68298;37.368;127.108;2023-04-21T06:22:33;12.10;;;6.13;;
78908;SDS011;68298;37.368;127.108;2023-04-21T06:25:04;10.73;;;6.38;;
78908;SDS011;68298;37.368;127.108;2023-04-21T06:27:35;12.63;;;6.18;;
78908;SDS011;68298;37.368;127.108;2023-04-21T06:30:06;11.43;;;6.68;;
78908;SDS011;68298;37.368;127.108;2023-04-21T06:32:37;11.05;;;6.00;;
78908;SDS011;68298;37.368;127.108;2023-04-21T06:35:07;15.50;;;7.00;;
78908;SDS011;68298;37.368;127.108;2023-04-21T06:37:38;13.65;;;6.25;;
78908;SDS011;68298;37.368;127.108;2023-04-21T06:40:09;10.30;;;5.85;;
78908;SDS011;68298;37.368;127.108;2023-04-21T06:42:42;9.38;;;5.50;;
78908;SDS011;68298;37.368;127.108;2023-04-21T06:45:13;9.73;;;6.25;;
78908;SDS011;68298;37.368;127.108;2023-04-21T06:47:43;9.98;;;5.60;;
78908;SDS011;68298;37.368;127.108;2023-04-21T06:50:14;10.07;;;6.15;;
78908;SDS011;68298;37.368;127.108;2023-04-21T06:52:45;9.48;;;6.47;;
78908;SDS011;68298;37.368;127.108;2023-04-21T06:55:16;10.90;;;5.93;;
78908;SDS011;68298;37.368;127.108;2023-04-21T06:57:46;8.95;;;5.28;;
78908;SDS011;68298;37.368;127.108;2023-04-21T07:00:17;12.70;;;6.95;;
78908;SDS011;68298;37.368;127.108;2023-04-21T07:02:48;7.10;;;4.93;;
78908;SDS011;68298;37.368;127.108;2023-04-21T07:05:18;10.25;;;5.78;;
78908;SDS011;68298;37.368;127.108;2023-04-21T07:07:49;11.73;;;5.80;;
78908;SDS011;68298;37.368;127.108;2023-04-21T07:10:19;9.70;;;5.25;;
78908;SDS011;68298;37.368;127.108;2023-04-21T07:12:50;10.18;;;5.03;;
78908;SDS011;68298;37.368;127.108;2023-04-21T07:15:21;10.45;;;5.22;;
78908;SDS011;68298;37.368;127.108;2023-04-21T07:17:51;8.23;;;4.95;;
78908;SDS011;68298;37.368;127.108;2023-04-21T07:20:21;10.68;;;5.85;;
78908;SDS011;68298;37.368;127.108;2023-04-21T07:22:52;10.35;;;5.40;;
78908;SDS011;68298;37.368;127.108;2023-04-21T07:25:23;10.88;;;5.40;;
78908;SDS011;68298;37.368;127.108;2023-04-21T07:27:53;10.07;;;5.47;;
78908;SDS011;68298;37.368;127.108;2023-04-21T07:30:24;7.88;;;4.90;;
78908;SDS011;68298;37.368;127.108;2023-04-21T07:32:54;7.18;;;5.05;;
78908;SDS011;68298;37.368;127.108;2023-04-21T07:35:25;8.48;;;5.35;;
78908;SDS011;68298;37.368;127.108;2023-04-21T07:37:55;11.48;;;5.57;;
78908;SDS011;68298;37.368;127.108;2023-04-21T07:40:26;8.80;;;5.40;;
78908;SDS011;68298;37.368;127.108;2023-04-21T07:42:56;10.50;;;4.95;;
78908;SDS011;68298;37.368;127.108;2023-04-21T07:45:27;9.68;;;5.55;;
78908;SDS011;68298;37.368;127.108;2023-04-21T07:47:58;8.35;;;5.35;;
78908;SDS011;68298;37.368;127.108;2023-04-21T07:50:32;9.27;;;5.07;;
78908;SDS011;68298;37.368;127.108;2023-04-21T07:53:06;8.23;;;4.38;;
78908;SDS011;68298;37.368;127.108;2023-04-21T07:55:36;9.23;;;4.45;;
78908;SDS011;68298;37.368;127.108;2023-04-21T07:58:06;7.22;;;4.80;;
78908;SDS011;68298;37.368;127.108;2023-04-21T08:00:38;8.00;;;3.95;;
78908;SDS011;68298;37.368;127.108;2023-04-21T08:03:09;7.10;;;4.40;;
78908;SDS011;68298;37.368;127.108;2023-04-21T08:05:40;7.50;;;4.30;;
78908;SDS011;68298;37.368;127.108;2023-04-21T08:08:11;8.85;;;4.43;;
78908;SDS011;68298;37.368;127.108;2023-04-21T08:10:42;8.98;;;4.00;;
78908;SDS011;68298;37.368;127.108;2023-04-21T08:13:13;5.80;;;3.30;;
78908;SDS011;68298;37.368;127.108;2023-04-21T08:15:44;8.27;;;4.50;;
78908;SDS011;68298;37.368;127.108;2023-04-21T08:18:14;10.50;;;3.67;;
78908;SDS011;68298;37.368;127.108;2023-04-21T08:20:49;9.52;;;4.20;;
78908;SDS011;68298;37.368;127.108;2023-04-21T08:23:20;10.88;;;3.60;;
78908;SDS011;68298;37.368;127.108;2023-04-21T08:25:51;6.70;;;3.42;;
78908;SDS011;68298;37.368;127.108;2023-04-21T08:28:22;12.27;;;3.25;;
78908;SDS011;68298;37.368;127.108;2023-04-21T08:30:52;9.20;;;3.67;;
78908;SDS011;68298;37.368;127.108;2023-04-21T08:33:23;6.25;;;3.30;;
78908;SDS011;68298;37.368;127.108;2023-04-21T08:35:54;8.60;;;3.80;;
78908;SDS011;68298;37.368;127.108;2023-04-21T08:38:32;6.35;;;3.42;;
78908;SDS011;68298;37.368;127.108;2023-04-21T08:41:03;9.35;;;3.40;;
78908;SDS011;68298;37.368;127.108;2023-04-21T08:43:34;6.00;;;3.55;;
78908;SDS011;68298;37.368;127.108;2023-04-21T08:46:05;7.65;;;3.40;;
78908;SDS011;68298;37.368;127.108;2023-04-21T08:48:37;6.43;;;3.20;;
78908;SDS011;68298;37.368;127.108;2023-04-21T08:51:08;8.73;;;3.47;;
78908;SDS011;68298;37.368;127.108;2023-04-21T08:53:39;5.78;;;3.10;;
78908;SDS011;68298;37.368;127.108;2023-04-21T08:56:10;8.50;;;2.92;;
78908;SDS011;68298;37.368;127.108;2023-04-21T08:58:40;4.95;;;2.80;;
78908;SDS011;68298;37.368;127.108;2023-04-21T09:01:11;6.97;;;3.58;;
78908;SDS011;68298;37.368;127.108;2023-04-21T09:03:42;7.43;;;3.28;;
78908;SDS011;68298;37.368;127.108;2023-04-21T09:06:13;7.22;;;3.15;;
78908;SDS011;68298;37.368;127.108;2023-04-21T09:08:51;6.05;;;2.90;;
78908;SDS011;68298;37.368;127.108;2023-04-21T09:11:26;8.13;;;2.95;;
78908;SDS011;68298;37.368;127.108;2023-04-21T09:14:02;7.88;;;3.17;;
78908;SDS011;68298;37.368;127.108;2023-04-21T09:16:33;7.88;;;2.70;;
78908;SDS011;68298;37.368;127.108;2023-04-21T09:19:12;7.22;;;2.95;;
78908;SDS011;68298;37.368;127.108;2023-04-21T09:21:46;9.38;;;3.30;;
78908;SDS011;68298;37.368;127.108;2023-04-21T09:24:17;5.80;;;2.50;;
78908;SDS011;68298;37.368;127.108;2023-04-21T09:26:51;8.20;;;3.00;;
78908;SDS011;68298;37.368;127.108;2023-04-21T09:29:23;12.20;;;3.40;;
78908;SDS011;68298;37.368;127.108;2023-04-21T09:31:54;5.13;;;2.67;;
78908;SDS011;68298;37.368;127.108;2023-04-21T09:34:25;5.28;;;2.55;;
78908;SDS011;68298;37.368;127.108;2023-04-21T09:37:02;9.60;;;3.35;;
78908;SDS011;68298;37.368;127.108;2023-04-21T09:39:43;10.10;;;3.20;;
78908;SDS011;68298;37.368;127.108;2023-04-21T09:42:30;13.07;;;3.13;;
78908;SDS011;68298;37.368;127.108;2023-04-21T09:45:06;11.43;;;3.40;;
78908;SDS011;68298;37.368;127.108;2023-04-21T09:47:47;7.55;;;2.58;;
78908;SDS011;68298;37.368;127.108;2023-04-21T09:50:20;13.23;;;3.45;;
78908;SDS011;68298;37.368;127.108;2023-04-21T09:53:13;10.27;;;3.13;;
78908;SDS011;68298;37.368;127.108;2023-04-21T09:55:45;9.80;;;2.95;;
78908;SDS011;68298;37.368;127.108;2023-04-21T09:58:21;13.80;;;4.20;;
78908;SDS011;68298;37.368;127.108;2023-04-21T10:00:55;11.85;;;3.42;;
78908;SDS011;68298;37.368;127.108;2023-04-21T10:03:26;10.35;;;2.95;;
78908;SDS011;68298;37.368;127.108;2023-04-21T10:05:59;12.07;;;3.40;;
78908;SDS011;68298;37.368;127.108;2023-04-21T10:08:30;13.13;;;3.88;;
78908;SDS011;68298;37.368;127.108;2023-04-21T10:11:01;10.25;;;3.00;;
78908;SDS011;68298;37.368;127.108;2023-04-21T10:13:34;10.35;;;3.08;;
78908;SDS011;68298;37.368;127.108;2023-04-21T10:16:10;12.65;;;3.20;;
78908;SDS011;68298;37.368;127.108;2023-04-21T10:18:43;10.85;;;3.20;;
78908;SDS011;68298;37.368;127.108;2023-04-21T10:21:17;8.45;;;3.17;;
78908;SDS011;68298;37.368;127.108;2023-04-21T10:23:50;12.98;;;3.70;;
78908;SDS011;68298;37.368;127.108;2023-04-21T10:26:23;10.43;;;3.15;;
78908;SDS011;68298;37.368;127.108;2023-04-21T10:29:04;10.85;;;3.30;;
78908;SDS011;68298;37.368;127.108;2023-04-21T10:34:28;7.90;;;2.90;;
78908;SDS011;68298;37.368;127.108;2023-04-21T10:39:43;11.07;;;3.15;;
78908;SDS011;68298;37.368;127.108;2023-04-21T10:52:45;9.32;;;3.25;;
78908;SDS011;68298;37.368;127.108;2023-04-21T10:55:39;9.40;;;2.88;;
78908;SDS011;68298;37.368;127.108;2023-04-21T10:58:10;9.02;;;3.08;;
78908;SDS011;68298;37.368;127.108;2023-04-21T11:00:41;9.70;;;2.63;;
78908;SDS011;68298;37.368;127.108;2023-04-21T11:03:12;9.45;;;2.80;;
78908;SDS011;68298;37.368;127.108;2023-04-21T11:05:43;8.18;;;2.83;;
78908;SDS011;68298;37.368;127.108;2023-04-21T11:08:14;9.43;;;2.83;;
78908;SDS011;68298;37.368;127.108;2023-04-21T11:10:52;10.68;;;3.35;;
78908;SDS011;68298;37.368;127.108;2023-04-21T11:13:25;9.63;;;3.13;;
78908;SDS011;68298;37.368;127.108;2023-04-21T11:16:06;11.90;;;3.10;;
78908;SDS011;68298;37.368;127.108;2023-04-21T11:23:48;12.23;;;3.60;;
78908;SDS011;68298;37.368;127.108;2023-04-21T11:26:30;9.30;;;3.28;;
78908;SDS011;68298;37.368;127.108;2023-04-21T11:29:06;11.65;;;3.17;;
78908;SDS011;68298;37.368;127.108;2023-04-21T11:31:40;10.48;;;3.03;;
78908;SDS011;68298;37.368;127.108;2023-04-21T11:34:12;9.18;;;3.10;;
78908;SDS011;68298;37.368;127.108;2023-04-21T11:36:47;15.32;;;3.88;;
78908;SDS011;68298;37.368;127.108;2023-04-21T11:39:19;8.25;;;2.92;;
78908;SDS011;68298;37.368;127.108;2023-04-21T11:41:51;12.20;;;3.13;;
78908;SDS011;68298;37.368;127.108;2023-04-21T11:44:34;9.32;;;2.55;;
78908;SDS011;68298;37.368;127.108;2023-04-21T11:47:12;9.85;;;3.00;;
78908;SDS011;68298;37.368;127.108;2023-04-21T11:49:48;8.23;;;3.05;;
78908;SDS011;68298;37.368;127.108;2023-04-21T11:52:30;14.73;;;3.08;;
78908;SDS011;68298;37.368;127.108;2023-04-21T11:55:05;8.43;;;2.90;;
78908;SDS011;68298;37.368;127.108;2023-04-21T11:57:48;5.60;;;2.88;;
78908;SDS011;68298;37.368;127.108;2023-04-21T12:00:19;6.95;;;2.75;;
78908;SDS011;68298;37.368;127.108;2023-04-21T12:02:54;8.52;;;2.78;;
78908;SDS011;68298;37.368;127.108;2023-04-21T12:05:33;9.48;;;3.20;;
78908;SDS011;68298;37.368;127.108;2023-04-21T12:08:04;9.68;;;3.00;;
78908;SDS011;68298;37.368;127.108;2023-04-21T12:10:35;11.35;;;3.50;;
78908;SDS011;68298;37.368;127.108;2023-04-21T12:13:06;10.82;;;3.35;;
78908;SDS011;68298;37.368;127.108;2023-04-21T12:15:37;10.20;;;2.50;;
78908;SDS011;68298;37.368;127.108;2023-04-21T12:18:11;6.35;;;2.97;;
78908;SDS011;68298;37.368;127.108;2023-04-21T12:20:49;7.93;;;3.28;;
78908;SDS011;68298;37.368;127.108;2023-04-21T12:23:20;7.45;;;2.65;;
78908;SDS011;68298;37.368;127.108;2023-04-21T12:25:51;9.43;;;3.17;;
78908;SDS011;68298;37.368;127.108;2023-04-21T12:28:22;9.82;;;2.97;;
78908;SDS011;68298;37.368;127.108;2023-04-21T12:30:52;8.82;;;2.95;;
78908;SDS011;68298;37.368;127.108;2023-04-21T12:33:24;10.90;;;3.53;;
78908;SDS011;68298;37.368;127.108;2023-04-21T12:35:55;9.52;;;2.85;;
78908;SDS011;68298;37.368;127.108;2023-04-21T12:38:25;9.57;;;2.70;;
78908;SDS011;68298;37.368;127.108;2023-04-21T12:40:56;7.88;;;3.25;;
78908;SDS011;68298;37.368;127.108;2023-04-21T12:43:27;8.80;;;3.00;;
78908;SDS011;68298;37.368;127.108;2023-04-21T12:45:58;7.88;;;3.17;;
78908;SDS011;68298;37.368;127.108;2023-04-21T12:48:29;10.30;;;3.05;;
78908;SDS011;68298;37.368;127.108;2023-04-21T12:51:00;9.77;;;3.22;;
78908;SDS011;68298;37.368;127.108;2023-04-21T12:53:31;12.57;;;3.50;;
78908;SDS011;68298;37.368;127.108;2023-04-21T12:56:02;10.43;;;3.53;;
78908;SDS011;68298;37.368;127.108;2023-04-21T12:58:32;8.38;;;2.95;;
78908;SDS011;68298;37.368;127.108;2023-04-21T13:01:04;8.07;;;2.55;;
78908;SDS011;68298;37.368;127.108;2023-04-21T13:03:35;7.15;;;2.80;;
78908;SDS011;68298;37.368;127.108;2023-04-21T13:06:05;7.32;;;3.03;;
78908;SDS011;68298;37.368;127.108;2023-04-21T13:08:36;11.25;;;3.08;;
78908;SDS011;68298;37.368;127.108;2023-04-21T13:11:07;12.40;;;3.58;;
78908;SDS011;68298;37.368;127.108;2023-04-21T13:13:37;10.18;;;3.38;;
78908;SDS011;68298;37.368;127.108;2023-04-21T13:16:08;8.90;;;3.20;;
78908;SDS011;68298;37.368;127.108;2023-04-21T13:18:39;11.15;;;3.13;;
78908;SDS011;68298;37.368;127.108;2023-04-21T13:21:09;9.05;;;3.10;;
78908;SDS011;68298;37.368;127.108;2023-04-21T13:23:40;7.65;;;2.97;;
78908;SDS011;68298;37.368;127.108;2023-04-21T13:26:11;11.73;;;3.90;;
78908;SDS011;68298;37.368;127.108;2023-04-21T13:28:41;7.68;;;3.08;;
78908;SDS011;68298;37.368;127.108;2023-04-21T13:31:12;9.40;;;2.60;;
78908;SDS011;68298;37.368;127.108;2023-04-21T13:33:42;6.32;;;2.88;;
78908;SDS011;68298;37.368;127.108;2023-04-21T13:36:13;5.90;;;2.75;;
78908;SDS011;68298;37.368;127.108;2023-04-21T13:38:43;7.43;;;2.58;;
78908;SDS011;68298;37.368;127.108;2023-04-21T13:41:16;8.20;;;3.00;;
78908;SDS011;68298;37.368;127.108;2023-04-21T13:43:46;9.07;;;3.00;;
78908;SDS011;68298;37.368;127.108;2023-04-21T13:46:18;12.75;;;3.45;;
78908;SDS011;68298;37.368;127.108;2023-04-21T13:48:49;9.13;;;2.95;;
78908;SDS011;68298;37.368;127.108;2023-04-21T13:51:19;11.98;;;3.08;;
78908;SDS011;68298;37.368;127.108;2023-04-21T13:53:50;10.50;;;2.90;;
78908;SDS011;68298;37.368;127.108;2023-04-21T13:56:21;10.13;;;3.20;;
78908;SDS011;68298;37.368;127.108;2023-04-21T13:58:51;9.32;;;3.03;;
78908;SDS011;68298;37.368;127.108;2023-04-21T14:01:23;6.72;;;2.95;;
78908;SDS011;68298;37.368;127.108;2023-04-21T14:03:53;11.90;;;3.35;;
78908;SDS011;68298;37.368;127.108;2023-04-21T14:06:25;10.20;;;3.03;;
78908;SDS011;68298;37.368;127.108;2023-04-21T14:08:57;9.98;;;2.80;;
78908;SDS011;68298;37.368;127.108;2023-04-21T14:11:27;10.57;;;3.22;;
78908;SDS011;68298;37.368;127.108;2023-04-21T14:13:58;12.85;;;3.63;;
78908;SDS011;68298;37.368;127.108;2023-04-21T14:16:36;10.77;;;3.25;;
78908;SDS011;68298;37.368;127.108;2023-04-21T14:19:07;9.98;;;3.05;;
78908;SDS011;68298;37.368;127.108;2023-04-21T14:21:38;11.68;;;3.08;;
78908;SDS011;68298;37.368;127.108;2023-04-21T14:24:09;6.95;;;2.58;;
78908;SDS011;68298;37.368;127.108;2023-04-21T14:26:40;8.18;;;2.90;;
78908;SDS011;68298;37.368;127.108;2023-04-21T14:29:10;18.92;;;3.35;;
78908;SDS011;68298;37.368;127.108;2023-04-21T14:31:41;11.65;;;2.95;;
78908;SDS011;68298;37.368;127.108;2023-04-21T14:34:11;9.48;;;3.45;;
78908;SDS011;68298;37.368;127.108;2023-04-21T14:36:42;14.00;;;3.03;;
78908;SDS011;68298;37.368;127.108;2023-04-21T14:41:45;8.85;;;4.00;;
78908;SDS011;68298;37.368;127.108;2023-04-21T14:44:16;7.30;;;3.15;;
78908;SDS011;68298;37.368;127.108;2023-04-21T14:46:47;6.82;;;3.08;;
78908;SDS011;68298;37.368;127.108;2023-04-21T14:49:37;10.20;;;3.45;;
78908;SDS011;68298;37.368;127.108;2023-04-21T14:52:07;8.07;;;2.78;;
78908;SDS011;68298;37.368;127.108;2023-04-21T14:54:38;9.88;;;3.00;;
78908;SDS011;68298;37.368;127.108;2023-04-21T14:57:09;9.38;;;2.95;;
78908;SDS011;68298;37.368;127.108;2023-04-21T15:02:14;12.43;;;4.00;;
78908;SDS011;68298;37.368;127.108;2023-04-21T15:04:45;8.23;;;2.97;;
78908;SDS011;68298;37.368;127.108;2023-04-21T15:07:16;7.93;;;3.22;;